createdAt,value
2018-12-21T00:00:26.870Z,9.20
2018-12-21T00:02:54.307Z,7.47
2018-12-21T00:05:21.766Z,8.57
2018-12-21T00:07:49.966Z,5.90
2018-12-21T00:10:17.421Z,6.57
2018-12-21T00:12:44.917Z,3.63
2018-12-21T00:15:13.080Z,4.65
2018-12-21T00:17:40.504Z,9.63
2018-12-21T00:20:08.706Z,6.20
2018-12-21T00:22:36.165Z,5.07
2018-12-21T00:25:03.788Z,5.00
2018-12-21T00:27:31.242Z,6.03
2018-12-21T00:29:58.687Z,4.53
2018-12-21T00:32:31.767Z,7.30
2018-12-21T00:35:05.046Z,4.87
2018-12-21T00:37:38.118Z,6.93
2018-12-21T00:40:12.050Z,4.67
2018-12-21T00:42:40.253Z,7.90
2018-12-21T00:45:07.700Z,6.13
2018-12-21T00:47:35.133Z,6.13
2018-12-21T00:50:04.278Z,4.40
2018-12-21T00:52:31.726Z,5.40
2018-12-21T00:54:59.177Z,6.50
2018-12-21T00:57:26.608Z,6.53
2018-12-21T00:59:54.063Z,4.10
2018-12-21T01:02:21.499Z,7.90
2018-12-21T01:04:48.978Z,4.90
2018-12-21T01:07:16.436Z,5.17
2018-12-21T01:09:44.652Z,5.63
2018-12-21T01:12:12.955Z,4.23
2018-12-21T01:14:40.404Z,3.73
2018-12-21T01:17:08.619Z,6.87
2018-12-21T01:19:36.056Z,6.47
2018-12-21T01:22:03.957Z,4.70
2018-12-21T01:24:31.421Z,4.43
2018-12-21T01:26:58.867Z,6.30
2018-12-21T01:29:26.306Z,4.93
2018-12-21T01:31:53.764Z,6.17
2018-12-21T01:34:21.968Z,4.43
2018-12-21T01:36:49.431Z,4.10
2018-12-21T01:39:16.872Z,6.33
2018-12-21T01:41:45.124Z,5.80
2018-12-21T01:44:12.553Z,5.37
2018-12-21T01:46:40.003Z,2.83
2018-12-21T01:49:07.438Z,4.20
2018-12-21T01:51:34.883Z,4.77
2018-12-21T01:54:02.327Z,3.20
2018-12-21T01:56:30.117Z,3.67
2018-12-21T01:58:57.549Z,5.77
2018-12-21T02:01:25.001Z,6.23
2018-12-21T02:03:52.441Z,3.63
2018-12-21T02:06:19.883Z,2.40
2018-12-21T02:08:48.085Z,4.90
2018-12-21T02:11:15.542Z,3.83
2018-12-21T02:13:42.978Z,5.73
2018-12-21T02:16:11.194Z,3.90
2018-12-21T02:18:38.634Z,5.50
2018-12-21T02:21:06.854Z,9.17
2018-12-21T02:23:34.292Z,5.20
2018-12-21T02:26:01.729Z,5.30
2018-12-21T02:28:29.936Z,2.77
2018-12-21T02:30:57.374Z,4.97
2018-12-21T02:33:25.600Z,4.70
2018-12-21T02:35:53.094Z,5.97
2018-12-21T02:38:20.530Z,7.13
2018-12-21T02:40:47.973Z,5.68
2018-12-21T02:43:15.419Z,6.17
2018-12-21T02:45:42.862Z,6.43
2018-12-21T02:48:11.079Z,6.40
2018-12-21T02:50:38.506Z,8.70
2018-12-21T02:53:06.727Z,4.57
2018-12-21T02:55:34.168Z,6.37
2018-12-21T02:58:01.628Z,4.23
2018-12-21T03:00:29.827Z,6.03
2018-12-21T03:02:57.274Z,7.13
2018-12-21T03:05:24.722Z,6.13
2018-12-21T03:07:52.949Z,5.10
2018-12-21T03:10:20.407Z,5.17
2018-12-21T03:12:47.838Z,5.77
2018-12-21T03:15:15.321Z,5.53
2018-12-21T03:17:42.767Z,2.73
2018-12-21T03:20:10.209Z,6.20
2018-12-21T03:22:38.410Z,4.10
2018-12-21T03:25:05.854Z,3.67
2018-12-21T03:27:34.054Z,3.57
2018-12-21T03:30:01.501Z,4.23
2018-12-21T03:32:29.711Z,6.07
2018-12-21T03:34:57.153Z,2.90
2018-12-21T03:37:24.586Z,3.00
2018-12-21T03:39:52.862Z,5.00
2018-12-21T03:42:20.333Z,3.43
2018-12-21T03:44:48.540Z,3.80
2018-12-21T03:47:15.985Z,7.67
2018-12-21T03:49:44.194Z,4.70
2018-12-21T03:52:11.637Z,6.50
2018-12-21T03:54:39.096Z,5.40
2018-12-21T03:57:06.530Z,6.13
2018-12-21T03:59:33.981Z,9.23
2018-12-21T04:02:01.404Z,6.50
2018-12-21T04:04:28.831Z,5.43
2018-12-21T04:06:57.050Z,6.73
2018-12-21T04:09:24.481Z,6.70
2018-12-21T04:11:52.727Z,5.93
2018-12-21T04:14:20.163Z,6.93
2018-12-21T04:16:47.618Z,6.60
2018-12-21T04:19:15.051Z,7.20
2018-12-21T04:21:42.498Z,6.57
2018-12-21T04:24:10.721Z,6.20
2018-12-21T04:26:38.151Z,4.30
2018-12-21T04:29:06.354Z,5.87
2018-12-21T04:31:33.815Z,5.10
2018-12-21T04:34:01.242Z,7.37
2018-12-21T04:36:29.455Z,6.97
2018-12-21T04:38:56.903Z,5.67
2018-12-21T04:41:24.348Z,5.97
2018-12-21T04:43:52.545Z,6.30
2018-12-21T04:46:20.000Z,4.57
2018-12-21T04:48:48.203Z,6.63
2018-12-21T04:51:15.639Z,5.77
2018-12-21T04:53:43.852Z,4.30
2018-12-21T04:56:11.287Z,4.80
2018-12-21T04:58:39.503Z,4.30
2018-12-21T05:01:06.940Z,6.93
2018-12-21T05:03:34.386Z,3.60
2018-12-21T05:06:03.526Z,7.37
2018-12-21T05:08:30.972Z,5.83
2018-12-21T05:10:58.424Z,4.23
2018-12-21T05:13:26.648Z,4.43
2018-12-21T05:15:54.094Z,5.60
2018-12-21T05:18:21.539Z,4.85
2018-12-21T05:20:48.975Z,5.00
2018-12-21T05:23:17.200Z,4.50
2018-12-21T05:25:44.637Z,4.10
2018-12-21T05:28:12.083Z,3.93
2018-12-21T05:30:40.287Z,3.47
2018-12-21T05:33:07.718Z,3.70
2018-12-21T05:35:35.934Z,5.20
2018-12-21T05:38:03.891Z,4.27
2018-12-21T05:40:31.338Z,3.63
2018-12-21T05:42:59.562Z,3.93
2018-12-21T05:45:27.002Z,3.73
2018-12-21T05:47:56.163Z,3.50
2018-12-21T05:50:22.658Z,4.77
2018-12-21T05:52:50.115Z,4.57
2018-12-21T05:55:17.564Z,3.67
2018-12-21T05:57:45.783Z,2.93
2018-12-21T06:00:13.210Z,3.00
2018-12-21T06:02:40.655Z,3.10
2018-12-21T06:05:08.862Z,4.37
2018-12-21T06:07:36.308Z,2.90
2018-12-21T06:10:03.935Z,3.50
2018-12-21T06:12:31.379Z,3.47
2018-12-21T06:14:58.834Z,3.53
2018-12-21T06:17:26.288Z,3.10
2018-12-21T06:19:53.733Z,5.03
2018-12-21T06:22:21.171Z,2.87
2018-12-21T06:24:48.618Z,4.03
2018-12-21T06:27:16.050Z,3.13
2018-12-21T06:29:43.486Z,4.67
2018-12-21T06:32:11.030Z,4.03
2018-12-21T06:34:39.229Z,3.13
2018-12-21T06:37:06.666Z,3.20
2018-12-21T06:39:34.883Z,4.10
2018-12-21T06:42:02.319Z,3.83
2018-12-21T06:44:30.552Z,5.20
2018-12-21T06:46:57.988Z,4.03
2018-12-21T06:49:25.439Z,4.30
2018-12-21T06:51:52.911Z,5.43
2018-12-21T06:54:20.358Z,4.30
2018-12-21T06:56:47.813Z,4.80
2018-12-21T06:59:16.033Z,4.97
2018-12-21T07:01:43.472Z,4.40
2018-12-21T07:04:10.924Z,4.40
2018-12-21T07:06:38.362Z,5.07
2018-12-21T07:09:06.578Z,4.93
2018-12-21T07:11:34.036Z,5.13
2018-12-21T07:14:01.494Z,4.60
2018-12-21T07:16:28.941Z,5.03
2018-12-21T07:18:57.146Z,5.10
2018-12-21T07:21:24.607Z,5.13
2018-12-21T07:23:52.042Z,5.57
2018-12-21T07:26:20.257Z,5.40
2018-12-21T07:28:47.690Z,5.93
2018-12-21T07:31:15.897Z,4.57
2018-12-21T07:33:43.364Z,5.37
2018-12-21T07:36:10.790Z,5.63
2018-12-21T07:38:38.990Z,6.63
2018-12-21T07:41:06.460Z,5.47
2018-12-21T07:43:33.903Z,5.03
2018-12-21T07:46:02.101Z,5.83
2018-12-21T07:48:29.552Z,6.10
2018-12-21T07:50:56.986Z,4.93
2018-12-21T07:53:24.417Z,5.70
2018-12-21T07:55:51.870Z,5.63
2018-12-21T07:58:19.311Z,4.83
2018-12-21T08:00:46.753Z,4.97
2018-12-21T08:03:14.954Z,5.37
2018-12-21T08:05:42.399Z,4.87
2018-12-21T08:08:10.592Z,6.70
2018-12-21T08:10:38.042Z,5.90
2018-12-21T08:13:05.483Z,5.00
2018-12-21T08:15:32.940Z,4.50
2018-12-21T08:18:00.384Z,5.20
2018-12-21T08:20:27.812Z,4.80
2018-12-21T08:22:55.272Z,4.93
2018-12-21T08:25:22.716Z,5.23
2018-12-21T08:27:50.162Z,3.87
2018-12-21T08:30:19.095Z,4.23
2018-12-21T08:32:46.537Z,4.00
2018-12-21T08:35:14.751Z,4.80
2018-12-21T08:37:42.196Z,4.50
2018-12-21T08:40:09.676Z,3.63
2018-12-21T08:42:37.118Z,3.97
2018-12-21T08:45:04.573Z,3.20
2018-12-21T08:47:32.781Z,3.43
2018-12-21T08:50:00.222Z,3.03
2018-12-21T08:52:27.669Z,3.67
2018-12-21T08:54:55.994Z,3.60
2018-12-21T08:57:23.336Z,3.53
2018-12-21T08:59:50.790Z,3.13
2018-12-21T09:02:18.223Z,4.70
2018-12-21T09:04:46.436Z,3.67
2018-12-21T09:07:13.895Z,2.63
2018-12-21T09:09:41.323Z,2.90
2018-12-21T09:12:09.546Z,2.43
2018-12-21T09:14:36.995Z,3.30
2018-12-21T09:17:04.467Z,1.83
2018-12-21T09:19:31.902Z,1.50
2018-12-21T09:22:00.102Z,2.20
2018-12-21T09:24:27.553Z,2.90
2018-12-21T09:26:54.987Z,1.73
2018-12-21T09:29:22.437Z,1.53
2018-12-21T09:31:49.887Z,1.70
2018-12-21T09:34:17.346Z,1.57
2018-12-21T09:36:44.788Z,4.40
2018-12-21T09:39:12.268Z,5.40
2018-12-21T09:41:39.744Z,9.10
2018-12-21T09:44:07.170Z,4.33
2018-12-21T09:46:34.625Z,7.00
2018-12-21T09:49:02.086Z,6.00
2018-12-21T09:51:29.537Z,9.77
2018-12-21T09:53:57.735Z,4.63
2018-12-21T09:56:25.187Z,11.80
2018-12-21T09:58:52.637Z,8.03
2018-12-21T10:01:20.847Z,9.47
2018-12-21T10:03:48.314Z,7.67
2018-12-21T10:06:15.753Z,6.43
2018-12-21T10:08:43.202Z,17.83
2018-12-21T10:11:11.438Z,6.83
2018-12-21T10:13:38.875Z,13.33
2018-12-21T10:16:06.339Z,13.53
2018-12-21T10:18:33.799Z,11.33
2018-12-21T10:21:01.256Z,6.30
2018-12-21T10:23:28.718Z,7.37
2018-12-21T10:25:56.173Z,7.07
2018-12-21T10:28:23.628Z,10.13
2018-12-21T10:30:51.840Z,9.47
2018-12-21T10:33:19.302Z,10.73
2018-12-21T10:35:46.765Z,10.83
2018-12-21T10:38:14.213Z,13.43
2018-12-21T10:40:41.667Z,12.70
2018-12-21T10:43:09.111Z,8.53
2018-12-21T10:45:41.629Z,10.27
2018-12-21T10:48:04.775Z,11.83
2018-12-21T10:50:32.263Z,18.33
2018-12-21T10:52:59.696Z,9.03
2018-12-21T10:55:27.174Z,13.70
2018-12-21T10:57:54.619Z,16.25
2018-12-21T11:00:22.067Z,14.87
2018-12-21T11:02:50.275Z,11.50
2018-12-21T11:05:17.729Z,15.33
2018-12-21T11:07:45.166Z,10.87
2018-12-21T11:10:13.383Z,10.97
2018-12-21T11:12:40.831Z,10.27
2018-12-21T11:15:08.291Z,13.83
2018-12-21T11:17:35.734Z,13.83
2018-12-21T11:20:04.662Z,10.63
2018-12-21T11:22:32.131Z,10.40
2018-12-21T11:24:59.591Z,16.37
2018-12-21T11:27:27.035Z,9.40
2018-12-21T11:29:54.496Z,14.17
2018-12-21T11:32:22.700Z,10.63
2018-12-21T11:34:50.155Z,16.20
2018-12-21T11:37:17.615Z,16.83
2018-12-21T11:39:45.059Z,19.53
2018-12-21T11:42:13.287Z,17.47
2018-12-21T11:44:40.731Z,15.80
2018-12-21T11:47:08.198Z,23.60
2018-12-21T11:49:35.645Z,17.50
2018-12-21T11:52:04.652Z,20.30
2018-12-21T11:54:32.098Z,13.17
2018-12-21T11:56:59.535Z,15.93
2018-12-21T11:59:27.766Z,12.33
2018-12-21T12:01:55.223Z,19.00
2018-12-21T12:04:22.671Z,9.43
2018-12-21T12:06:50.127Z,21.27
2018-12-21T12:09:17.586Z,13.13
2018-12-21T12:11:45.047Z,21.13
2018-12-21T12:14:12.626Z,11.60
2018-12-21T12:16:40.865Z,15.37
2018-12-21T12:19:08.306Z,23.70
2018-12-21T12:21:35.762Z,20.13
2018-12-21T12:24:04.532Z,12.97
2018-12-21T12:26:31.979Z,26.17
2018-12-21T12:28:59.447Z,16.50
2018-12-21T12:31:26.897Z,22.60
2018-12-21T12:33:55.118Z,15.53
2018-12-21T12:36:22.558Z,13.27
2018-12-21T12:38:50.037Z,22.80
2018-12-21T12:41:17.492Z,12.83
2018-12-21T12:43:44.938Z,19.33
2018-12-21T12:46:12.382Z,16.65
2018-12-21T12:48:40.612Z,10.93
2018-12-21T12:51:08.050Z,13.10
2018-12-21T12:53:35.515Z,19.77
2018-12-21T12:56:05.307Z,11.07
2018-12-21T12:58:31.887Z,18.53
2018-12-21T13:00:59.335Z,5.50
2018-12-21T13:03:26.779Z,12.33
2018-12-21T13:05:55.006Z,13.07
2018-12-21T13:08:22.459Z,25.77
2018-12-21T13:10:49.910Z,16.30
2018-12-21T13:13:17.377Z,21.97
2018-12-21T13:15:44.839Z,14.53
2018-12-21T13:18:12.309Z,15.80
2018-12-21T13:20:39.760Z,20.17
2018-12-21T13:23:07.211Z,18.80
2018-12-21T13:25:34.676Z,18.63
2018-12-21T13:28:02.127Z,23.00
2018-12-21T13:30:29.557Z,18.47
2018-12-21T13:32:57.017Z,12.80
2018-12-21T13:35:24.473Z,18.37
2018-12-21T13:37:51.931Z,16.83
2018-12-21T13:40:19.387Z,24.73
2018-12-21T13:42:46.826Z,20.40
2018-12-21T13:45:14.990Z,22.23
2018-12-21T13:47:42.449Z,18.10
2018-12-21T13:50:10.029Z,19.27
2018-12-21T13:52:38.107Z,17.40
2018-12-21T13:55:05.579Z,19.57
2018-12-21T13:57:33.022Z,15.63
2018-12-21T14:00:00.470Z,13.80
2018-12-21T14:02:28.686Z,22.40
2018-12-21T14:04:56.115Z,27.43
2018-12-21T14:07:23.563Z,26.77
2018-12-21T14:09:51.781Z,21.97
2018-12-21T14:12:19.222Z,20.60
2018-12-21T14:14:46.734Z,25.17
2018-12-21T14:17:14.180Z,19.40
2018-12-21T14:19:41.646Z,25.93
2018-12-21T14:22:09.099Z,31.83
2018-12-21T14:24:36.539Z,22.70
2018-12-21T14:27:03.990Z,28.67
2018-12-21T14:29:31.435Z,28.07
2018-12-21T14:31:59.649Z,22.80
2018-12-21T14:34:27.107Z,22.07
2018-12-21T14:36:54.555Z,21.63
2018-12-21T14:39:22.767Z,28.90
2018-12-21T14:41:50.331Z,27.60
2018-12-21T14:44:17.701Z,31.70
2018-12-21T14:46:45.156Z,31.67
2018-12-21T14:49:12.606Z,25.83
2018-12-21T14:51:40.065Z,22.50
2018-12-21T14:54:07.505Z,29.47
2018-12-21T14:56:35.735Z,30.13
2018-12-21T14:59:04.405Z,24.53
2018-12-21T15:01:31.855Z,24.73
2018-12-21T15:03:59.304Z,23.43
2018-12-21T15:06:27.517Z,27.27
2018-12-21T15:08:54.970Z,26.17
2018-12-21T15:11:22.541Z,13.93
2018-12-21T15:13:49.895Z,23.53
2018-12-21T15:16:17.603Z,27.67
2018-12-21T15:18:45.052Z,34.33
2018-12-21T15:21:12.516Z,28.93
2018-12-21T15:23:39.962Z,23.63
2018-12-21T15:26:07.408Z,23.57
2018-12-21T15:28:34.879Z,24.90
2018-12-21T15:31:02.328Z,21.23
2018-12-21T15:33:29.775Z,28.17
2018-12-21T15:35:57.978Z,23.90
2018-12-21T15:38:25.454Z,28.07
2018-12-21T15:40:52.924Z,26.13
2018-12-21T15:43:20.372Z,25.67
2018-12-21T15:45:47.825Z,28.03
2018-12-21T15:48:15.264Z,24.27
2018-12-21T15:50:43.492Z,18.40
2018-12-21T15:53:10.939Z,27.50
2018-12-21T15:55:38.397Z,11.50
2018-12-21T15:58:06.178Z,18.23
2018-12-21T16:00:33.631Z,22.97
2018-12-21T16:03:01.089Z,23.53
2018-12-21T16:05:28.531Z,24.37
2018-12-21T16:07:56.745Z,18.27
2018-12-21T16:10:24.186Z,14.20
2018-12-21T16:12:51.665Z,21.40
2018-12-21T16:15:19.085Z,19.60
2018-12-21T16:17:47.311Z,22.43
2018-12-21T16:20:14.763Z,20.03
2018-12-21T16:22:42.638Z,24.53
2018-12-21T16:25:10.425Z,10.60
2018-12-21T16:27:37.877Z,12.83
2018-12-21T16:30:05.313Z,16.37
2018-12-21T16:32:33.527Z,15.37
2018-12-21T16:35:00.977Z,17.93
2018-12-21T16:37:28.427Z,23.53
2018-12-21T16:39:55.886Z,10.50
2018-12-21T16:42:23.317Z,19.60
2018-12-21T16:44:50.779Z,18.07
2018-12-21T16:47:18.255Z,11.17
2018-12-21T16:49:46.470Z,17.60
2018-12-21T16:52:13.935Z,15.83
2018-12-21T16:54:41.390Z,14.13
2018-12-21T16:57:08.875Z,19.33
2018-12-21T16:59:36.338Z,15.97
2018-12-21T17:02:03.793Z,19.10
2018-12-21T17:04:31.248Z,12.60
2018-12-21T17:06:58.711Z,18.10
2018-12-21T17:09:26.162Z,20.20
2018-12-21T17:11:53.630Z,15.03
2018-12-21T17:14:21.048Z,19.23
2018-12-21T17:16:48.503Z,16.60
2018-12-21T17:19:15.998Z,14.23
2018-12-21T17:21:43.437Z,6.93
2018-12-21T17:24:10.895Z,2.43
2018-12-21T17:26:38.338Z,6.87
2018-12-21T17:29:05.792Z,5.57
2018-12-21T17:31:33.243Z,5.80
2018-12-21T17:34:00.705Z,5.23
2018-12-21T17:36:28.135Z,6.47
2018-12-21T17:38:56.334Z,7.47
2018-12-21T17:41:23.814Z,7.10
2018-12-21T17:43:52.074Z,4.73
2018-12-21T17:46:19.529Z,6.17
2018-12-21T17:48:47.721Z,5.27
2018-12-21T17:51:15.174Z,3.43
2018-12-21T17:53:43.372Z,2.67
2018-12-21T17:56:10.801Z,3.90
2018-12-21T17:58:39.024Z,5.57
2018-12-21T18:01:06.468Z,7.80
2018-12-21T18:03:33.923Z,4.30
2018-12-21T18:06:01.350Z,8.70
2018-12-21T18:08:28.796Z,6.47
2018-12-21T18:10:57.005Z,3.80
2018-12-21T18:13:24.459Z,11.40
2018-12-21T18:15:51.912Z,5.57
2018-12-21T18:18:25.151Z,3.70
2018-12-21T18:20:46.814Z,8.80
2018-12-21T18:23:14.267Z,6.60
2018-12-21T18:25:41.698Z,9.73
2018-12-21T18:28:11.172Z,9.93
2018-12-21T18:30:37.349Z,5.37
2018-12-21T18:33:10.634Z,2.97
2018-12-21T18:35:32.258Z,9.80
2018-12-21T18:38:00.577Z,7.60
2018-12-21T18:40:27.938Z,6.43
2018-12-21T18:42:55.383Z,2.73
2018-12-21T18:45:22.829Z,5.63
2018-12-21T18:47:51.059Z,5.80
2018-12-21T18:50:18.629Z,7.93
2018-12-21T18:52:45.984Z,5.57
2018-12-21T18:55:13.414Z,4.70
2018-12-21T18:57:40.858Z,9.10
2018-12-21T19:00:09.083Z,8.67
2018-12-21T19:02:36.516Z,4.47
2018-12-21T19:05:03.973Z,7.10
2018-12-21T19:07:31.417Z,3.47
2018-12-21T19:09:58.873Z,6.50
2018-12-21T19:12:27.093Z,5.23
2018-12-21T19:14:54.534Z,3.63
2018-12-21T19:17:21.965Z,4.07
2018-12-21T19:19:49.423Z,1.90
2018-12-21T19:22:16.861Z,4.83
2018-12-21T19:24:44.304Z,2.57
2018-12-21T19:27:11.767Z,5.80
2018-12-21T19:29:39.208Z,8.53
2018-12-21T19:32:06.660Z,8.60
2018-12-21T19:34:34.866Z,8.40
2018-12-21T19:37:02.334Z,5.57
2018-12-21T19:39:29.781Z,5.87
2018-12-21T19:41:57.221Z,3.37
2018-12-21T19:44:25.455Z,5.23
2018-12-21T19:46:52.945Z,2.50
2018-12-21T19:49:20.382Z,5.90
2018-12-21T19:51:47.823Z,6.60
2018-12-21T19:54:16.193Z,4.90
2018-12-21T19:56:44.408Z,5.80
2018-12-21T19:59:11.867Z,2.73
2018-12-21T20:01:39.325Z,5.27
2018-12-21T20:04:06.783Z,3.07
2018-12-21T20:06:34.244Z,5.80
2018-12-21T20:09:01.696Z,2.63
2018-12-21T20:11:29.148Z,2.47
2018-12-21T20:13:56.628Z,1.13
2018-12-21T20:16:24.070Z,2.77
2018-12-21T20:18:51.518Z,2.80
2018-12-21T20:21:19.738Z,4.70
2018-12-21T20:23:47.198Z,4.87
2018-12-21T20:26:14.677Z,5.07
2018-12-21T20:28:42.145Z,2.20
2018-12-21T20:31:09.595Z,4.03
2018-12-21T20:33:37.210Z,4.63
2018-12-21T20:36:05.435Z,2.00
2018-12-21T20:38:32.887Z,5.07
2018-12-21T20:41:00.334Z,3.37
2018-12-21T20:43:28.563Z,1.87
2018-12-21T20:45:56.014Z,4.53
2018-12-21T20:48:24.270Z,1.50
2018-12-21T20:50:51.747Z,1.50
2018-12-21T20:53:19.202Z,2.40
2018-12-21T20:55:46.646Z,2.43
2018-12-21T20:58:14.119Z,2.13
2018-12-21T21:00:41.585Z,2.13
2018-12-21T21:03:09.035Z,1.50
2018-12-21T21:05:36.494Z,2.43
2018-12-21T21:08:04.043Z,2.30
2018-12-21T21:10:32.379Z,5.53
2018-12-21T21:12:59.742Z,2.70
2018-12-21T21:15:27.199Z,4.97
2018-12-21T21:17:54.655Z,5.07
2018-12-21T21:20:22.143Z,2.27
2018-12-21T21:22:49.589Z,2.87
2018-12-21T21:25:17.042Z,3.30
2018-12-21T21:27:44.511Z,2.33
2018-12-21T21:30:11.961Z,3.23
2018-12-21T21:32:39.421Z,5.07
2018-12-21T21:35:06.882Z,4.10
2018-12-21T21:37:34.334Z,3.13
2018-12-21T21:40:01.834Z,6.50
2018-12-21T21:42:29.269Z,6.90
2018-12-21T21:44:56.731Z,2.80
2018-12-21T21:47:24.190Z,5.90
2018-12-21T21:49:51.660Z,7.70
2018-12-21T21:52:19.128Z,2.00
2018-12-21T21:54:46.599Z,2.97
2018-12-21T21:57:14.053Z,6.03
2018-12-21T21:59:41.530Z,4.67
2018-12-21T22:02:08.999Z,3.90
2018-12-21T22:04:36.499Z,5.30
2018-12-21T22:07:03.963Z,5.17
2018-12-21T22:09:31.437Z,6.00
2018-12-21T22:12:00.260Z,2.37
2018-12-21T22:14:27.113Z,2.77
2018-12-21T22:16:54.679Z,3.90
2018-12-21T22:19:22.122Z,2.60
2018-12-21T22:21:49.569Z,5.23
2018-12-21T22:24:17.777Z,4.13
2018-12-21T22:26:45.233Z,3.67
2018-12-21T22:29:12.677Z,6.67
2018-12-21T22:31:40.894Z,2.60
2018-12-21T22:34:08.351Z,3.50
2018-12-21T22:36:35.812Z,4.60
2018-12-21T22:39:04.387Z,5.07
2018-12-21T22:41:31.856Z,4.87
2018-12-21T22:43:59.315Z,6.00
2018-12-21T22:46:26.782Z,7.47
2018-12-21T22:48:54.268Z,4.20
2018-12-21T22:51:21.720Z,5.70
2018-12-21T22:53:49.166Z,7.80
2018-12-21T22:56:16.626Z,4.13
2018-12-21T22:58:44.094Z,9.00
2018-12-21T23:01:11.537Z,4.67
2018-12-21T23:03:39.768Z,4.83
2018-12-21T23:06:07.227Z,6.80
2018-12-21T23:08:34.707Z,4.00
2018-12-21T23:11:02.143Z,4.83
2018-12-21T23:13:29.599Z,4.77
2018-12-21T23:15:57.068Z,6.23
2018-12-21T23:18:24.526Z,6.77
2018-12-21T23:20:51.998Z,4.00
2018-12-21T23:23:19.451Z,9.00
2018-12-21T23:25:46.922Z,5.20
2018-12-21T23:28:14.358Z,4.70
2018-12-21T23:30:41.845Z,5.53
2018-12-21T23:33:09.308Z,5.47
2018-12-21T23:35:36.809Z,6.57
2018-12-21T23:38:04.235Z,6.20
2018-12-21T23:40:31.699Z,8.10
2018-12-21T23:42:59.162Z,8.50
2018-12-21T23:45:26.629Z,4.10
2018-12-21T23:47:54.111Z,4.07
2018-12-21T23:50:21.596Z,4.40
2018-12-21T23:52:49.043Z,8.47
2018-12-21T23:55:16.507Z,16.37
2018-12-21T23:57:43.960Z,7.63
